sensor_id;sensor_type;location;lat;lon;timestamp;P1;durP1;ratioP1;P2;durP2;ratioP2
44476;SDS011;30180;44.788;10.366;2022-08-04T00:00:27;4.03;;;2.10;;
44476;SDS011;30180;44.788;10.366;2022-08-04T00:03:01;3.70;;;2.00;;
44476;SDS011;30180;44.788;10.366;2022-08-04T00:05:41;2.00;;;1.60;;
44476;SDS011;30180;44.788;10.366;2022-08-04T00:08:25;2.60;;;1.92;;
44476;SDS011;30180;44.788;10.366;2022-08-04T00:11:00;2.63;;;1.92;;
44476;SDS011;30180;44.788;10.366;2022-08-04T00:13:30;2.58;;;1.80;;
44476;SDS011;30180;44.788;10.366;2022-08-04T00:16:03;2.90;;;1.70;;
44476;SDS011;30180;44.788;10.366;2022-08-04T00:18:35;2.85;;;1.75;;
44476;SDS011;30180;44.788;10.366;2022-08-04T00:21:09;3.47;;;1.90;;
44476;SDS011;30180;44.788;10.366;2022-08-04T00:23:42;2.53;;;1.80;;
44476;SDS011;30180;44.788;10.366;2022-08-04T00:26:31;3.55;;;1.77;;
44476;SDS011;30180;44.788;10.366;2022-08-04T00:29:00;4.13;;;1.88;;
44476;SDS011;30180;44.788;10.366;2022-08-04T00:31:29;4.55;;;1.88;;
44476;SDS011;30180;44.788;10.366;2022-08-04T00:34:18;2.28;;;1.50;;
44476;SDS011;30180;44.788;10.366;2022-08-04T00:36:47;3.33;;;1.70;;
44476;SDS011;30180;44.788;10.366;2022-08-04T00:39:15;3.63;;;1.70;;
44476;SDS011;30180;44.788;10.366;2022-08-04T00:41:48;2.58;;;1.70;;
44476;SDS011;30180;44.788;10.366;2022-08-04T00:44:29;4.55;;;1.90;;
44476;SDS011;30180;44.788;10.366;2022-08-04T00:47:17;3.17;;;1.70;;
44476;SDS011;30180;44.788;10.366;2022-08-04T00:50:03;2.65;;;1.75;;
44476;SDS011;30180;44.788;10.366;2022-08-04T00:52:46;2.97;;;1.80;;
44476;SDS011;30180;44.788;10.366;2022-08-04T00:55:49;5.32;;;1.98;;
44476;SDS011;30180;44.788;10.366;2022-08-04T00:58:42;3.13;;;1.98;;
44476;SDS011;30180;44.788;10.366;2022-08-04T01:01:30;3.63;;;1.77;;
44476;SDS011;30180;44.788;10.366;2022-08-04T01:04:14;2.40;;;1.77;;
44476;SDS011;30180;44.788;10.366;2022-08-04T01:06:53;2.88;;;1.75;;
44476;SDS011;30180;44.788;10.366;2022-08-04T01:09:35;2.53;;;1.88;;
44476;SDS011;30180;44.788;10.366;2022-08-04T01:12:17;4.07;;;2.00;;
44476;SDS011;30180;44.788;10.366;2022-08-04T01:15:03;2.95;;;1.83;;
44476;SDS011;30180;44.788;10.366;2022-08-04T01:17:36;2.35;;;1.48;;
44476;SDS011;30180;44.788;10.366;2022-08-04T01:20:10;2.58;;;1.75;;
44476;SDS011;30180;44.788;10.366;2022-08-04T01:22:59;3.40;;;1.80;;
44476;SDS011;30180;44.788;10.366;2022-08-04T01:25:55;3.22;;;1.88;;
44476;SDS011;30180;44.788;10.366;2022-08-04T01:29:13;2.75;;;1.92;;
44476;SDS011;30180;44.788;10.366;2022-08-04T01:34:19;3.90;;;1.83;;
44476;SDS011;30180;44.788;10.366;2022-08-04T01:37:10;2.17;;;1.67;;
44476;SDS011;30180;44.788;10.366;2022-08-04T01:39:49;4.55;;;1.88;;
44476;SDS011;30180;44.788;10.366;2022-08-04T01:42:19;2.67;;;2.00;;
44476;SDS011;30180;44.788;10.366;2022-08-04T01:44:59;3.22;;;1.95;;
44476;SDS011;30180;44.788;10.366;2022-08-04T01:47:29;2.45;;;1.75;;
44476;SDS011;30180;44.788;10.366;2022-08-04T01:50:01;2.75;;;1.92;;
44476;SDS011;30180;44.788;10.366;2022-08-04T01:52:33;1.95;;;1.67;;
44476;SDS011;30180;44.788;10.366;2022-08-04T01:55:03;2.30;;;1.70;;
44476;SDS011;30180;44.788;10.366;2022-08-04T01:57:35;2.88;;;1.92;;
44476;SDS011;30180;44.788;10.366;2022-08-04T02:00:09;3.20;;;2.00;;
44476;SDS011;30180;44.788;10.366;2022-08-04T02:02:39;2.97;;;1.90;;
44476;SDS011;30180;44.788;10.366;2022-08-04T02:05:08;2.72;;;2.00;;
44476;SDS011;30180;44.788;10.366;2022-08-04T02:07:39;2.45;;;1.63;;
44476;SDS011;30180;44.788;10.366;2022-08-04T02:10:17;3.38;;;2.10;;
44476;SDS011;30180;44.788;10.366;2022-08-04T02:12:52;3.33;;;1.90;;
44476;SDS011;30180;44.788;10.366;2022-08-04T02:15:45;3.03;;;1.92;;
44476;SDS011;30180;44.788;10.366;2022-08-04T02:18:23;2.20;;;1.90;;
44476;SDS011;30180;44.788;10.366;2022-08-04T02:20:57;2.80;;;2.08;;
44476;SDS011;30180;44.788;10.366;2022-08-04T02:23:33;2.92;;;2.10;;
44476;SDS011;30180;44.788;10.366;2022-08-04T02:26:03;3.38;;;2.03;;
44476;SDS011;30180;44.788;10.366;2022-08-04T02:28:39;2.88;;;1.92;;
44476;SDS011;30180;44.788;10.366;2022-08-04T02:31:16;4.57;;;2.13;;
44476;SDS011;30180;44.788;10.366;2022-08-04T02:33:55;2.67;;;1.90;;
44476;SDS011;30180;44.788;10.366;2022-08-04T02:36:34;4.45;;;1.90;;
44476;SDS011;30180;44.788;10.366;2022-08-04T02:39:04;2.53;;;1.90;;
44476;SDS011;30180;44.788;10.366;2022-08-04T02:41:33;4.30;;;2.13;;
44476;SDS011;30180;44.788;10.366;2022-08-04T02:44:04;3.20;;;1.93;;
44476;SDS011;30180;44.788;10.366;2022-08-04T02:46:36;2.75;;;1.98;;
44476;SDS011;30180;44.788;10.366;2022-08-04T02:49:05;3.10;;;1.88;;
44476;SDS011;30180;44.788;10.366;2022-08-04T02:51:36;4.65;;;2.05;;
44476;SDS011;30180;44.788;10.366;2022-08-04T02:54:08;5.53;;;1.92;;
44476;SDS011;30180;44.788;10.366;2022-08-04T02:56:37;3.25;;;2.20;;
44476;SDS011;30180;44.788;10.366;2022-08-04T02:59:08;2.70;;;2.25;;
44476;SDS011;30180;44.788;10.366;2022-08-04T03:04:30;2.15;;;1.70;;
44476;SDS011;30180;44.788;10.366;2022-08-04T03:07:23;4.82;;;2.00;;
44476;SDS011;30180;44.788;10.366;2022-08-04T03:10:17;3.03;;;1.92;;
44476;SDS011;30180;44.788;10.366;2022-08-04T03:16:21;4.20;;;2.10;;
44476;SDS011;30180;44.788;10.366;2022-08-04T03:25:32;2.92;;;1.80;;
44476;SDS011;30180;44.788;10.366;2022-08-04T03:31:41;2.90;;;2.08;;
44476;SDS011;30180;44.788;10.366;2022-08-04T03:34:36;3.35;;;2.15;;
44476;SDS011;30180;44.788;10.366;2022-08-04T03:37:27;3.28;;;1.95;;
44476;SDS011;30180;44.788;10.366;2022-08-04T03:49:55;3.83;;;1.90;;
44476;SDS011;30180;44.788;10.366;2022-08-04T03:52:43;4.07;;;2.50;;
44476;SDS011;30180;44.788;10.366;2022-08-04T03:55:40;2.85;;;1.98;;
44476;SDS011;30180;44.788;10.366;2022-08-04T03:58:34;4.05;;;2.25;;
44476;SDS011;30180;44.788;10.366;2022-08-04T04:01:22;3.92;;;2.50;;
44476;SDS011;30180;44.788;10.366;2022-08-04T04:04:45;3.58;;;2.03;;
44476;SDS011;30180;44.788;10.366;2022-08-04T04:13:48;3.53;;;1.90;;
44476;SDS011;30180;44.788;10.366;2022-08-04T04:16:28;3.15;;;2.10;;
44476;SDS011;30180;44.788;10.366;2022-08-04T04:19:16;3.30;;;2.08;;
44476;SDS011;30180;44.788;10.366;2022-08-04T04:22:15;2.80;;;1.83;;
44476;SDS011;30180;44.788;10.366;2022-08-04T04:27:56;6.90;;;2.10;;
44476;SDS011;30180;44.788;10.366;2022-08-04T04:31:11;4.75;;;1.80;;
44476;SDS011;30180;44.788;10.366;2022-08-04T04:34:05;4.32;;;1.95;;
44476;SDS011;30180;44.788;10.366;2022-08-04T04:36:43;3.83;;;1.90;;
44476;SDS011;30180;44.788;10.366;2022-08-04T04:39:23;3.33;;;1.90;;
44476;SDS011;30180;44.788;10.366;2022-08-04T04:42:01;3.80;;;2.03;;
44476;SDS011;30180;44.788;10.366;2022-08-04T04:44:51;4.97;;;2.60;;
44476;SDS011;30180;44.788;10.366;2022-08-04T04:47:44;2.67;;;2.03;;
44476;SDS011;30180;44.788;10.366;2022-08-04T04:50:38;3.75;;;2.03;;
44476;SDS011;30180;44.788;10.366;2022-08-04T04:53:23;4.30;;;2.10;;
44476;SDS011;30180;44.788;10.366;2022-08-04T04:55:59;4.47;;;2.22;;
44476;SDS011;30180;44.788;10.366;2022-08-04T04:58:33;3.47;;;1.92;;
44476;SDS011;30180;44.788;10.366;2022-08-04T05:03:48;3.42;;;2.08;;
44476;SDS011;30180;44.788;10.366;2022-08-04T05:06:36;5.00;;;2.63;;
44476;SDS011;30180;44.788;10.366;2022-08-04T05:09:28;2.58;;;2.10;;
44476;SDS011;30180;44.788;10.366;2022-08-04T05:12:13;3.25;;;2.20;;
44476;SDS011;30180;44.788;10.366;2022-08-04T05:15:17;4.75;;;2.50;;
44476;SDS011;30180;44.788;10.366;2022-08-04T05:17:51;4.72;;;2.13;;
44476;SDS011;30180;44.788;10.366;2022-08-04T05:20:22;4.60;;;2.47;;
44476;SDS011;30180;44.788;10.366;2022-08-04T05:22:55;5.88;;;2.72;;
44476;SDS011;30180;44.788;10.366;2022-08-04T05:25:29;7.38;;;2.47;;
44476;SDS011;30180;44.788;10.366;2022-08-04T05:28:04;4.28;;;2.35;;
44476;SDS011;30180;44.788;10.366;2022-08-04T05:30:37;7.32;;;2.40;;
44476;SDS011;30180;44.788;10.366;2022-08-04T05:33:14;4.80;;;2.85;;
44476;SDS011;30180;44.788;10.366;2022-08-04T05:35:51;6.15;;;2.50;;
44476;SDS011;30180;44.788;10.366;2022-08-04T05:38:43;5.78;;;2.83;;
44476;SDS011;30180;44.788;10.366;2022-08-04T05:41:15;6.57;;;2.67;;
44476;SDS011;30180;44.788;10.366;2022-08-04T05:43:46;6.63;;;2.70;;
44476;SDS011;30180;44.788;10.366;2022-08-04T05:46:16;4.70;;;2.53;;
44476;SDS011;30180;44.788;10.366;2022-08-04T05:48:45;3.42;;;2.47;;
44476;SDS011;30180;44.788;10.366;2022-08-04T05:51:14;7.13;;;2.78;;
44476;SDS011;30180;44.788;10.366;2022-08-04T05:53:43;7.88;;;2.88;;
44476;SDS011;30180;44.788;10.366;2022-08-04T05:56:13;5.82;;;2.70;;
44476;SDS011;30180;44.788;10.366;2022-08-04T05:58:42;6.25;;;2.90;;
44476;SDS011;30180;44.788;10.366;2022-08-04T06:01:14;7.65;;;2.70;;
44476;SDS011;30180;44.788;10.366;2022-08-04T06:03:45;7.93;;;3.10;;
44476;SDS011;30180;44.788;10.366;2022-08-04T06:06:16;7.93;;;3.15;;
44476;SDS011;30180;44.788;10.366;2022-08-04T06:11:14;9.98;;;2.88;;
44476;SDS011;30180;44.788;10.366;2022-08-04T06:13:46;8.55;;;2.78;;
44476;SDS011;30180;44.788;10.366;2022-08-04T06:16:21;7.55;;;3.10;;
44476;SDS011;30180;44.788;10.366;2022-08-04T06:18:57;7.93;;;2.78;;
44476;SDS011;30180;44.788;10.366;2022-08-04T06:21:50;6.15;;;2.63;;
44476;SDS011;30180;44.788;10.366;2022-08-04T06:24:22;8.05;;;2.50;;
44476;SDS011;30180;44.788;10.366;2022-08-04T06:26:53;4.65;;;2.38;;
44476;SDS011;30180;44.788;10.366;2022-08-04T06:29:23;5.57;;;3.10;;
44476;SDS011;30180;44.788;10.366;2022-08-04T06:31:58;4.95;;;2.42;;
44476;SDS011;30180;44.788;10.366;2022-08-04T06:34:59;6.35;;;2.33;;
44476;SDS011;30180;44.788;10.366;2022-08-04T06:37:28;5.05;;;2.20;;
44476;SDS011;30180;44.788;10.366;2022-08-04T06:40:08;4.97;;;2.45;;
44476;SDS011;30180;44.788;10.366;2022-08-04T06:42:58;4.78;;;1.90;;
44476;SDS011;30180;44.788;10.366;2022-08-04T06:45:27;4.80;;;2.40;;
44476;SDS011;30180;44.788;10.366;2022-08-04T06:47:58;5.65;;;2.28;;
44476;SDS011;30180;44.788;10.366;2022-08-04T06:53:26;3.95;;;2.20;;
44476;SDS011;30180;44.788;10.366;2022-08-04T06:55:55;3.90;;;2.40;;
44476;SDS011;30180;44.788;10.366;2022-08-04T06:58:24;7.18;;;2.40;;
44476;SDS011;30180;44.788;10.366;2022-08-04T07:00:54;3.47;;;2.20;;
44476;SDS011;30180;44.788;10.366;2022-08-04T07:03:28;4.43;;;2.05;;
44476;SDS011;30180;44.788;10.366;2022-08-04T07:05:58;3.88;;;2.35;;
44476;SDS011;30180;44.788;10.366;2022-08-04T07:08:32;2.38;;;1.80;;
44476;SDS011;30180;44.788;10.366;2022-08-04T07:11:02;3.33;;;1.90;;
44476;SDS011;30180;44.788;10.366;2022-08-04T07:13:32;7.53;;;2.10;;
44476;SDS011;30180;44.788;10.366;2022-08-04T07:16:01;2.42;;;1.80;;
44476;SDS011;30180;44.788;10.366;2022-08-04T07:18:32;5.18;;;1.73;;
44476;SDS011;30180;44.788;10.366;2022-08-04T07:21:00;3.38;;;2.17;;
44476;SDS011;30180;44.788;10.366;2022-08-04T07:23:28;3.42;;;2.13;;
44476;SDS011;30180;44.788;10.366;2022-08-04T07:25:57;5.50;;;2.30;;
44476;SDS011;30180;44.788;10.366;2022-08-04T07:28:39;2.58;;;2.00;;
44476;SDS011;30180;44.788;10.366;2022-08-04T07:31:08;4.53;;;2.15;;
44476;SDS011;30180;44.788;10.366;2022-08-04T07:34:01;4.68;;;2.33;;
44476;SDS011;30180;44.788;10.366;2022-08-04T07:36:46;6.47;;;2.30;;
44476;SDS011;30180;44.788;10.366;2022-08-04T07:39:18;5.38;;;2.20;;
44476;SDS011;30180;44.788;10.366;2022-08-04T07:41:55;7.28;;;2.00;;
44476;SDS011;30180;44.788;10.366;2022-08-04T07:44:27;5.10;;;2.15;;
44476;SDS011;30180;44.788;10.366;2022-08-04T07:46:57;3.85;;;2.35;;
44476;SDS011;30180;44.788;10.366;2022-08-04T07:49:27;3.25;;;2.00;;
44476;SDS011;30180;44.788;10.366;2022-08-04T07:52:22;4.20;;;2.30;;
44476;SDS011;30180;44.788;10.366;2022-08-04T07:54:50;4.05;;;1.90;;
44476;SDS011;30180;44.788;10.366;2022-08-04T07:57:20;3.30;;;2.07;;
44476;SDS011;30180;44.788;10.366;2022-08-04T08:00:07;5.78;;;2.13;;
44476;SDS011;30180;44.788;10.366;2022-08-04T08:02:40;2.50;;;1.60;;
44476;SDS011;30180;44.788;10.366;2022-08-04T08:05:12;3.13;;;1.90;;
44476;SDS011;30180;44.788;10.366;2022-08-04T08:07:43;5.70;;;2.10;;
44476;SDS011;30180;44.788;10.366;2022-08-04T08:10:20;4.85;;;2.00;;
44476;SDS011;30180;44.788;10.366;2022-08-04T08:12:48;3.80;;;2.10;;
44476;SDS011;30180;44.788;10.366;2022-08-04T08:15:18;7.60;;;2.05;;
44476;SDS011;30180;44.788;10.366;2022-08-04T08:17:47;4.18;;;1.90;;
44476;SDS011;30180;44.788;10.366;2022-08-04T08:20:26;3.03;;;1.67;;
44476;SDS011;30180;44.788;10.366;2022-08-04T08:22:56;6.90;;;2.03;;
44476;SDS011;30180;44.788;10.366;2022-08-04T08:25:26;3.45;;;1.80;;
44476;SDS011;30180;44.788;10.366;2022-08-04T08:27:54;10.90;;;2.20;;
44476;SDS011;30180;44.788;10.366;2022-08-04T08:30:22;2.13;;;1.70;;
44476;SDS011;30180;44.788;10.366;2022-08-04T08:32:57;3.83;;;1.60;;
44476;SDS011;30180;44.788;10.366;2022-08-04T08:35:32;3.90;;;1.88;;
44476;SDS011;30180;44.788;10.366;2022-08-04T08:38:20;5.32;;;2.17;;
44476;SDS011;30180;44.788;10.366;2022-08-04T08:40:57;3.22;;;1.90;;
44476;SDS011;30180;44.788;10.366;2022-08-04T08:44:09;2.85;;;1.80;;
44476;SDS011;30180;44.788;10.366;2022-08-04T08:47:14;10.93;;;2.65;;
44476;SDS011;30180;44.788;10.366;2022-08-04T08:49:56;2.97;;;1.80;;
44476;SDS011;30180;44.788;10.366;2022-08-04T08:52:54;7.43;;;1.90;;
44476;SDS011;30180;44.788;10.366;2022-08-04T08:55:40;3.83;;;1.70;;
44476;SDS011;30180;44.788;10.366;2022-08-04T08:58:22;3.33;;;1.60;;
44476;SDS011;30180;44.788;10.366;2022-08-04T09:01:05;3.80;;;1.77;;
44476;SDS011;30180;44.788;10.366;2022-08-04T09:03:50;3.22;;;1.70;;
44476;SDS011;30180;44.788;10.366;2022-08-04T09:06:53;4.35;;;1.98;;
44476;SDS011;30180;44.788;10.366;2022-08-04T09:09:50;3.28;;;2.10;;
44476;SDS011;30180;44.788;10.366;2022-08-04T09:12:29;3.35;;;1.70;;
44476;SDS011;30180;44.788;10.366;2022-08-04T09:15:08;2.60;;;1.65;;
44476;SDS011;30180;44.788;10.366;2022-08-04T09:17:40;2.58;;;1.88;;
44476;SDS011;30180;44.788;10.366;2022-08-04T09:20:15;3.95;;;2.03;;
44476;SDS011;30180;44.788;10.366;2022-08-04T09:22:53;4.97;;;1.90;;
44476;SDS011;30180;44.788;10.366;2022-08-04T09:25:29;2.92;;;1.95;;
44476;SDS011;30180;44.788;10.366;2022-08-04T09:28:02;3.63;;;1.60;;
44476;SDS011;30180;44.788;10.366;2022-08-04T09:30:37;4.25;;;1.80;;
44476;SDS011;30180;44.788;10.366;2022-08-04T09:33:13;2.38;;;1.48;;
44476;SDS011;30180;44.788;10.366;2022-08-04T09:36:12;2.97;;;1.38;;
44476;SDS011;30180;44.788;10.366;2022-08-04T09:39:00;3.25;;;1.50;;
44476;SDS011;30180;44.788;10.366;2022-08-04T09:41:37;2.75;;;1.80;;
44476;SDS011;30180;44.788;10.366;2022-08-04T09:44:20;3.28;;;2.00;;
44476;SDS011;30180;44.788;10.366;2022-08-04T09:47:16;4.78;;;1.70;;
44476;SDS011;30180;44.788;10.366;2022-08-04T09:49:49;3.42;;;1.50;;
44476;SDS011;30180;44.788;10.366;2022-08-04T09:52:31;2.38;;;1.58;;
44476;SDS011;30180;44.788;10.366;2022-08-04T09:55:12;3.13;;;1.83;;
44476;SDS011;30180;44.788;10.366;2022-08-04T09:57:54;2.65;;;1.65;;
44476;SDS011;30180;44.788;10.366;2022-08-04T10:00:32;3.53;;;1.33;;
44476;SDS011;30180;44.788;10.366;2022-08-04T10:03:08;3.75;;;1.88;;
44476;SDS011;30180;44.788;10.366;2022-08-04T10:05:48;2.83;;;1.52;;
44476;SDS011;30180;44.788;10.366;2022-08-04T10:08:35;2.53;;;1.90;;
44476;SDS011;30180;44.788;10.366;2022-08-04T10:11:15;2.50;;;1.63;;
44476;SDS011;30180;44.788;10.366;2022-08-04T10:13:54;3.40;;;1.70;;
44476;SDS011;30180;44.788;10.366;2022-08-04T10:16:32;2.97;;;1.60;;
44476;SDS011;30180;44.788;10.366;2022-08-04T10:19:11;3.95;;;1.77;;
44476;SDS011;30180;44.788;10.366;2022-08-04T10:21:51;3.75;;;1.73;;
44476;SDS011;30180;44.788;10.366;2022-08-04T10:24:57;2.88;;;1.50;;
44476;SDS011;30180;44.788;10.366;2022-08-04T10:27:53;3.92;;;1.98;;
44476;SDS011;30180;44.788;10.366;2022-08-04T10:33:15;2.85;;;1.67;;
44476;SDS011;30180;44.788;10.366;2022-08-04T10:35:49;3.00;;;1.67;;
44476;SDS011;30180;44.788;10.366;2022-08-04T10:38:24;4.13;;;1.50;;
44476;SDS011;30180;44.788;10.366;2022-08-04T10:40:58;2.75;;;1.70;;
44476;SDS011;30180;44.788;10.366;2022-08-04T10:43:32;3.78;;;1.80;;
44476;SDS011;30180;44.788;10.366;2022-08-04T10:46:11;2.60;;;1.48;;
44476;SDS011;30180;44.788;10.366;2022-08-04T10:48:45;2.13;;;1.50;;
44476;SDS011;30180;44.788;10.366;2022-08-04T10:51:22;2.17;;;1.60;;
44476;SDS011;30180;44.788;10.366;2022-08-04T10:53:55;2.88;;;1.48;;
44476;SDS011;30180;44.788;10.366;2022-08-04T10:56:28;2.50;;;1.50;;
44476;SDS011;30180;44.788;10.366;2022-08-04T10:59:02;2.00;;;1.70;;
44476;SDS011;30180;44.788;10.366;2022-08-04T11:01:37;2.30;;;1.58;;
44476;SDS011;30180;44.788;10.366;2022-08-04T11:04:28;3.55;;;1.80;;
44476;SDS011;30180;44.788;10.366;2022-08-04T11:07:03;2.50;;;1.38;;
44476;SDS011;30180;44.788;10.366;2022-08-04T11:09:31;2.03;;;1.50;;
44476;SDS011;30180;44.788;10.366;2022-08-04T11:12:02;2.15;;;1.40;;
44476;SDS011;30180;44.788;10.366;2022-08-04T11:14:36;3.08;;;1.50;;
44476;SDS011;30180;44.788;10.366;2022-08-04T11:17:13;2.10;;;1.40;;
44476;SDS011;30180;44.788;10.366;2022-08-04T11:19:46;3.15;;;1.80;;
44476;SDS011;30180;44.788;10.366;2022-08-04T11:22:38;2.95;;;1.60;;
44476;SDS011;30180;44.788;10.366;2022-08-04T11:25:11;3.00;;;1.40;;
44476;SDS011;30180;44.788;10.366;2022-08-04T11:27:49;2.75;;;1.73;;
44476;SDS011;30180;44.788;10.366;2022-08-04T11:30:26;6.35;;;1.98;;
44476;SDS011;30180;44.788;10.366;2022-08-04T11:33:03;11.25;;;2.65;;
44476;SDS011;30180;44.788;10.366;2022-08-04T11:35:37;2.20;;;1.40;;
44476;SDS011;30180;44.788;10.366;2022-08-04T11:38:18;2.47;;;1.63;;
44476;SDS011;30180;44.788;10.366;2022-08-04T11:40:55;4.38;;;1.75;;
44476;SDS011;30180;44.788;10.366;2022-08-04T11:43:32;3.25;;;1.60;;
44476;SDS011;30180;44.788;10.366;2022-08-04T11:46:29;2.95;;;1.50;;
44476;SDS011;30180;44.788;10.366;2022-08-04T11:49:04;2.45;;;1.48;;
44476;SDS011;30180;44.788;10.366;2022-08-04T11:51:35;2.13;;;1.48;;
44476;SDS011;30180;44.788;10.366;2022-08-04T11:54:03;7.00;;;1.90;;
44476;SDS011;30180;44.788;10.366;2022-08-04T11:56:32;3.40;;;1.75;;
44476;SDS011;30180;44.788;10.366;2022-08-04T11:59:04;2.30;;;1.60;;
44476;SDS011;30180;44.788;10.366;2022-08-04T12:01:37;3.97;;;1.60;;
44476;SDS011;30180;44.788;10.366;2022-08-04T12:04:17;2.42;;;1.42;;
44476;SDS011;30180;44.788;10.366;2022-08-04T12:06:55;3.33;;;1.70;;
44476;SDS011;30180;44.788;10.366;2022-08-04T12:09:51;1.85;;;1.52;;
44476;SDS011;30180;44.788;10.366;2022-08-04T12:12:31;2.40;;;1.60;;
44476;SDS011;30180;44.788;10.366;2022-08-04T12:15:06;1.85;;;1.52;;
44476;SDS011;30180;44.788;10.366;2022-08-04T12:17:44;2.78;;;1.55;;
44476;SDS011;30180;44.788;10.366;2022-08-04T12:20:31;2.28;;;1.70;;
44476;SDS011;30180;44.788;10.366;2022-08-04T12:23:11;2.47;;;1.60;;
44476;SDS011;30180;44.788;10.366;2022-08-04T12:25:49;2.60;;;1.52;;
44476;SDS011;30180;44.788;10.366;2022-08-04T12:28:25;5.80;;;1.60;;
44476;SDS011;30180;44.788;10.366;2022-08-04T12:31:18;4.55;;;1.58;;
44476;SDS011;30180;44.788;10.366;2022-08-04T12:33:52;3.25;;;1.63;;
44476;SDS011;30180;44.788;10.366;2022-08-04T12:36:34;3.10;;;1.70;;
44476;SDS011;30180;44.788;10.366;2022-08-04T12:39:21;3.20;;;1.52;;
44476;SDS011;30180;44.788;10.366;2022-08-04T12:44:23;2.35;;;1.63;;
44476;SDS011;30180;44.788;10.366;2022-08-04T12:47:04;4.53;;;1.53;;
44476;SDS011;30180;44.788;10.366;2022-08-04T12:49:54;6.47;;;1.70;;
44476;SDS011;30180;44.788;10.366;2022-08-04T12:52:32;3.13;;;1.60;;
44476;SDS011;30180;44.788;10.366;2022-08-04T12:55:28;3.70;;;1.75;;
44476;SDS011;30180;44.788;10.366;2022-08-04T12:57:59;3.70;;;1.60;;
44476;SDS011;30180;44.788;10.366;2022-08-04T13:00:32;6.17;;;1.73;;
44476;SDS011;30180;44.788;10.366;2022-08-04T13:03:10;6.28;;;1.70;;
44476;SDS011;30180;44.788;10.366;2022-08-04T13:05:41;4.72;;;1.67;;
44476;SDS011;30180;44.788;10.366;2022-08-04T13:08:12;2.63;;;1.60;;
44476;SDS011;30180;44.788;10.366;2022-08-04T13:10:43;2.97;;;1.58;;
44476;SDS011;30180;44.788;10.366;2022-08-04T13:13:15;5.78;;;2.30;;
44476;SDS011;30180;44.788;10.366;2022-08-04T13:15:55;3.58;;;1.83;;
44476;SDS011;30180;44.788;10.366;2022-08-04T13:18:26;5.78;;;1.98;;
44476;SDS011;30180;44.788;10.366;2022-08-04T13:21:06;4.35;;;2.00;;
44476;SDS011;30180;44.788;10.366;2022-08-04T13:23:49;5.40;;;2.00;;
44476;SDS011;30180;44.788;10.366;2022-08-04T13:26:52;5.57;;;1.83;;
44476;SDS011;30180;44.788;10.366;2022-08-04T13:29:30;4.63;;;2.00;;
44476;SDS011;30180;44.788;10.366;2022-08-04T13:32:22;3.20;;;1.70;;
44476;SDS011;30180;44.788;10.366;2022-08-04T13:34:52;6.05;;;2.20;;
44476;SDS011;30180;44.788;10.366;2022-08-04T13:39:54;8.00;;;2.40;;
44476;SDS011;30180;44.788;10.366;2022-08-04T13:42:24;8.68;;;2.10;;
44476;SDS011;30180;44.788;10.366;2022-08-04T13:44:57;3.55;;;1.60;;
44476;SDS011;30180;44.788;10.366;2022-08-04T13:47:28;5.03;;;1.90;;
44476;SDS011;30180;44.788;10.366;2022-08-04T13:50:06;4.53;;;1.80;;
44476;SDS011;30180;44.788;10.366;2022-08-04T13:52:38;4.25;;;2.00;;
44476;SDS011;30180;44.788;10.366;2022-08-04T13:55:09;2.63;;;1.80;;
44476;SDS011;30180;44.788;10.366;2022-08-04T13:57:54;6.43;;;1.90;;
44476;SDS011;30180;44.788;10.366;2022-08-04T14:00:47;5.28;;;1.90;;
44476;SDS011;30180;44.788;10.366;2022-08-04T14:03:21;3.90;;;1.73;;
44476;SDS011;30180;44.788;10.366;2022-08-04T14:06:09;4.22;;;1.85;;
44476;SDS011;30180;44.788;10.366;2022-08-04T14:08:50;4.60;;;1.73;;
44476;SDS011;30180;44.788;10.366;2022-08-04T14:11:30;4.77;;;1.77;;
44476;SDS011;30180;44.788;10.366;2022-08-04T14:14:25;4.78;;;1.88;;
44476;SDS011;30180;44.788;10.366;2022-08-04T14:16:55;6.53;;;2.30;;
44476;SDS011;30180;44.788;10.366;2022-08-04T14:19:26;5.43;;;2.00;;
44476;SDS011;30180;44.788;10.366;2022-08-04T14:22:01;4.65;;;2.00;;
44476;SDS011;30180;44.788;10.366;2022-08-04T14:24:30;4.95;;;1.65;;
44476;SDS011;30180;44.788;10.366;2022-08-04T14:26:59;5.40;;;2.00;;
44476;SDS011;30180;44.788;10.366;2022-08-04T14:29:35;5.50;;;1.80;;
44476;SDS011;30180;44.788;10.366;2022-08-04T14:32:04;5.30;;;1.55;;
44476;SDS011;30180;44.788;10.366;2022-08-04T14:34:40;3.63;;;1.58;;
44476;SDS011;30180;44.788;10.366;2022-08-04T14:37:12;2.83;;;1.60;;
44476;SDS011;30180;44.788;10.366;2022-08-04T14:39:46;3.97;;;1.90;;
44476;SDS011;30180;44.788;10.366;2022-08-04T14:42:40;4.88;;;1.92;;
44476;SDS011;30180;44.788;10.366;2022-08-04T14:45:27;4.70;;;2.15;;
44476;SDS011;30180;44.788;10.366;2022-08-04T14:47:57;4.63;;;1.95;;
44476;SDS011;30180;44.788;10.366;2022-08-04T14:50:36;8.55;;;1.88;;
44476;SDS011;30180;44.788;10.366;2022-08-04T14:53:06;6.13;;;2.05;;
44476;SDS011;30180;44.788;10.366;2022-08-04T14:58:15;5.03;;;2.03;;
44476;SDS011;30180;44.788;10.366;2022-08-04T15:01:04;4.88;;;1.75;;
44476;SDS011;30180;44.788;10.366;2022-08-04T15:03:38;6.40;;;1.95;;
44476;SDS011;30180;44.788;10.366;2022-08-04T15:06:18;3.97;;;2.03;;
44476;SDS011;30180;44.788;10.366;2022-08-04T15:09:06;4.68;;;1.80;;
44476;SDS011;30180;44.788;10.366;2022-08-04T15:11:35;4.03;;;1.90;;
44476;SDS011;30180;44.788;10.366;2022-08-04T15:14:10;5.97;;;2.15;;
44476;SDS011;30180;44.788;10.366;2022-08-04T15:16:58;4.53;;;1.73;;
44476;SDS011;30180;44.788;10.366;2022-08-04T15:19:26;5.38;;;2.10;;
44476;SDS011;30180;44.788;10.366;2022-08-04T15:21:58;8.25;;;2.13;;
44476;SDS011;30180;44.788;10.366;2022-08-04T15:24:28;6.87;;;1.90;;
44476;SDS011;30180;44.788;10.366;2022-08-04T15:26:57;4.13;;;1.80;;
44476;SDS011;30180;44.788;10.366;2022-08-04T15:29:35;5.45;;;1.90;;
44476;SDS011;30180;44.788;10.366;2022-08-04T15:32:26;4.22;;;1.77;;
44476;SDS011;30180;44.788;10.366;2022-08-04T15:35:00;6.03;;;1.83;;
44476;SDS011;30180;44.788;10.366;2022-08-04T15:37:30;7.00;;;1.85;;
44476;SDS011;30180;44.788;10.366;2022-08-04T15:40:08;4.32;;;1.83;;
44476;SDS011;30180;44.788;10.366;2022-08-04T15:42:42;5.47;;;2.10;;
44476;SDS011;30180;44.788;10.366;2022-08-04T15:45:20;5.00;;;2.08;;
44476;SDS011;30180;44.788;10.366;2022-08-04T15:50:59;4.80;;;1.83;;
44476;SDS011;30180;44.788;10.366;2022-08-04T15:56:50;4.57;;;2.03;;
44476;SDS011;30180;44.788;10.366;2022-08-04T16:05:33;4.47;;;2.05;;
44476;SDS011;30180;44.788;10.366;2022-08-04T16:08:13;5.38;;;1.85;;
44476;SDS011;30180;44.788;10.366;2022-08-04T16:10:47;4.95;;;1.92;;
44476;SDS011;30180;44.788;10.366;2022-08-04T16:13:17;6.18;;;1.88;;
44476;SDS011;30180;44.788;10.366;2022-08-04T16:15:50;5.00;;;1.90;;
44476;SDS011;30180;44.788;10.366;2022-08-04T16:18:36;5.28;;;2.00;;
44476;SDS011;30180;44.788;10.366;2022-08-04T16:21:06;3.30;;;1.75;;
44476;SDS011;30180;44.788;10.366;2022-08-04T16:26:50;4.18;;;1.95;;
44476;SDS011;30180;44.788;10.366;2022-08-04T16:29:25;6.10;;;2.15;;
44476;SDS011;30180;44.788;10.366;2022-08-04T16:32:14;5.10;;;2.05;;
44476;SDS011;30180;44.788;10.366;2022-08-04T16:34:47;5.97;;;2.22;;
44476;SDS011;30180;44.788;10.366;2022-08-04T16:37:22;7.18;;;2.08;;
44476;SDS011;30180;44.788;10.366;2022-08-04T16:43:00;3.72;;;1.75;;
44476;SDS011;30180;44.788;10.366;2022-08-04T16:45:47;3.58;;;1.67;;
44476;SDS011;30180;44.788;10.366;2022-08-04T16:48:18;6.00;;;1.75;;
44476;SDS011;30180;44.788;10.366;2022-08-04T16:50:56;5.88;;;2.45;;
44476;SDS011;30180;44.788;10.366;2022-08-04T16:53:34;5.47;;;1.88;;